sensor_id;sensor_type;location;lat;lon;timestamp;temperature;humidity
22781;DHT22;11557;50.884;4.322;2024-03-23T00:55:27;10.60;99.90
22781;DHT22;11557;50.884;4.322;2024-03-23T00:57:52;10.40;99.90
22781;DHT22;11557;50.884;4.322;2024-03-23T01:00:27;10.40;99.90
22781;DHT22;11557;50.884;4.322;2024-03-23T01:02:55;10.60;99.90
22781;DHT22;11557;50.884;4.322;2024-03-23T01:05:20;10.50;99.90
22781;DHT22;11557;50.884;4.322;2024-03-23T01:07:46;10.50;99.90
22781;DHT22;11557;50.884;4.322;2024-03-23T01:10:12;10.60;99.90
22781;DHT22;11557;50.884;4.322;2024-03-23T01:12:37;10.80;99.90
22781;DHT22;11557;50.884;4.322;2024-03-23T01:15:03;11.00;99.90
22781;DHT22;11557;50.884;4.322;2024-03-23T01:17:29;11.10;99.90
22781;DHT22;11557;50.884;4.322;2024-03-23T01:19:54;10.90;99.90
22781;DHT22;11557;50.884;4.322;2024-03-23T01:22:20;10.40;99.90
22781;DHT22;11557;50.884;4.322;2024-03-23T01:24:45;10.60;99.90
22781;DHT22;11557;50.884;4.322;2024-03-23T01:27:11;10.90;99.90
22781;DHT22;11557;50.884;4.322;2024-03-23T01:29:37;10.90;99.90
22781;DHT22;11557;50.884;4.322;2024-03-23T01:32:02;10.80;99.90
22781;DHT22;11557;50.884;4.322;2024-03-23T01:34:28;10.80;99.90
22781;DHT22;11557;50.884;4.322;2024-03-23T01:36:54;10.80;99.90
22781;DHT22;11557;50.884;4.322;2024-03-23T01:39:19;10.70;99.90
22781;DHT22;11557;50.884;4.322;2024-03-23T01:41:45;10.70;99.90
22781;DHT22;11557;50.884;4.322;2024-03-23T01:44:10;10.60;99.90
22781;DHT22;11557;50.884;4.322;2024-03-23T01:46:40;10.60;99.90
22781;DHT22;11557;50.884;4.322;2024-03-23T01:49:07;10.50;99.90
22781;DHT22;11557;50.884;4.322;2024-03-23T01:51:34;10.20;99.90
22781;DHT22;11557;50.884;4.322;2024-03-23T01:54:02;10.20;99.90
22781;DHT22;11557;50.884;4.322;2024-03-23T01:56:33;10.20;99.90
22781;DHT22;11557;50.884;4.322;2024-03-23T01:59:01;10.30;99.90
22781;DHT22;11557;50.884;4.322;2024-03-23T02:01:26;10.20;99.90
22781;DHT22;11557;50.884;4.322;2024-03-23T02:03:52;10.20;99.90
22781;DHT22;11557;50.884;4.322;2024-03-23T02:06:21;10.40;99.90
22781;DHT22;11557;50.884;4.322;2024-03-23T02:08:48;10.50;99.90
22781;DHT22;11557;50.884;4.322;2024-03-23T02:11:16;10.40;99.90
22781;DHT22;11557;50.884;4.322;2024-03-23T02:13:42;9.10;99.90
22781;DHT22;11557;50.884;4.322;2024-03-23T02:16:08;9.70;99.90
22781;DHT22;11557;50.884;4.322;2024-03-23T02:18:34;9.50;99.90
22781;DHT22;11557;50.884;4.322;2024-03-23T02:21:00;9.60;99.90
22781;DHT22;11557;50.884;4.322;2024-03-23T02:23:25;9.60;99.90
22781;DHT22;11557;50.884;4.322;2024-03-23T02:25:51;9.50;99.90
22781;DHT22;11557;50.884;4.322;2024-03-23T02:28:18;9.30;99.90
22781;DHT22;11557;50.884;4.322;2024-03-23T02:30:44;9.30;99.90
22781;DHT22;11557;50.884;4.322;2024-03-23T02:33:10;9.20;99.90
22781;DHT22;11557;50.884;4.322;2024-03-23T02:35:36;9.20;99.90
22781;DHT22;11557;50.884;4.322;2024-03-23T02:38:01;9.20;99.90
22781;DHT22;11557;50.884;4.322;2024-03-23T02:40:28;9.10;99.90
22781;DHT22;11557;50.884;4.322;2024-03-23T02:42:53;9.10;99.90
22781;DHT22;11557;50.884;4.322;2024-03-23T02:45:19;9.20;99.90
22781;DHT22;11557;50.884;4.322;2024-03-23T02:47:45;9.50;99.90
22781;DHT22;11557;50.884;4.322;2024-03-23T02:50:10;9.70;99.90
22781;DHT22;11557;50.884;4.322;2024-03-23T02:52:36;9.70;99.90
22781;DHT22;11557;50.884;4.322;2024-03-23T02:55:03;9.90;99.90
22781;DHT22;11557;50.884;4.322;2024-03-23T02:57:29;10.00;99.90
22781;DHT22;11557;50.884;4.322;2024-03-23T02:59:55;10.10;99.90
22781;DHT22;11557;50.884;4.322;2024-03-23T03:02:21;10.10;99.90
22781;DHT22;11557;50.884;4.322;2024-03-23T03:04:47;9.90;99.90
22781;DHT22;11557;50.884;4.322;2024-03-23T03:07:13;10.10;99.90
22781;DHT22;11557;50.884;4.322;2024-03-23T03:09:39;9.90;99.90
22781;DHT22;11557;50.884;4.322;2024-03-23T03:12:08;9.80;99.90
22781;DHT22;11557;50.884;4.322;2024-03-23T03:14:34;10.00;99.90
22781;DHT22;11557;50.884;4.322;2024-03-23T03:17:00;9.80;99.90
22781;DHT22;11557;50.884;4.322;2024-03-23T03:19:25;9.70;99.90
22781;DHT22;11557;50.884;4.322;2024-03-23T03:21:51;9.60;99.90
22781;DHT22;11557;50.884;4.322;2024-03-23T03:24:17;9.50;99.90
22781;DHT22;11557;50.884;4.322;2024-03-23T03:26:43;9.60;99.90
22781;DHT22;11557;50.884;4.322;2024-03-23T03:29:08;9.70;99.90
22781;DHT22;11557;50.884;4.322;2024-03-23T03:31:34;9.50;99.90
22781;DHT22;11557;50.884;4.322;2024-03-23T03:34:00;9.50;99.90
22781;DHT22;11557;50.884;4.322;2024-03-23T03:36:26;9.60;99.90
22781;DHT22;11557;50.884;4.322;2024-03-23T03:38:51;9.80;99.90
22781;DHT22;11557;50.884;4.322;2024-03-23T03:41:18;10.00;99.90
22781;DHT22;11557;50.884;4.322;2024-03-23T03:43:44;10.10;99.90
22781;DHT22;11557;50.884;4.322;2024-03-23T03:46:10;10.30;99.90
22781;DHT22;11557;50.884;4.322;2024-03-23T03:48:36;10.00;99.90
22781;DHT22;11557;50.884;4.322;2024-03-23T03:51:03;10.10;99.90
22781;DHT22;11557;50.884;4.322;2024-03-23T03:53:28;10.00;99.90
22781;DHT22;11557;50.884;4.322;2024-03-23T03:55:54;9.90;99.90
22781;DHT22;11557;50.884;4.322;2024-03-23T03:58:20;9.90;99.90
22781;DHT22;11557;50.884;4.322;2024-03-23T04:00:45;9.70;99.90
22781;DHT22;11557;50.884;4.322;2024-03-23T04:03:12;9.70;99.90
22781;DHT22;11557;50.884;4.322;2024-03-23T04:05:38;9.60;99.90
22781;DHT22;11557;50.884;4.322;2024-03-23T04:08:04;9.60;99.90
22781;DHT22;11557;50.884;4.322;2024-03-23T04:10:30;9.30;99.90
22781;DHT22;11557;50.884;4.322;2024-03-23T04:12:56;9.00;99.90
22781;DHT22;11557;50.884;4.322;2024-03-23T04:15:21;9.10;99.90
22781;DHT22;11557;50.884;4.322;2024-03-23T04:17:47;9.30;99.90
22781;DHT22;11557;50.884;4.322;2024-03-23T04:20:13;9.20;99.90
22781;DHT22;11557;50.884;4.322;2024-03-23T04:22:42;9.10;99.90
22781;DHT22;11557;50.884;4.322;2024-03-23T04:25:08;9.00;99.90
22781;DHT22;11557;50.884;4.322;2024-03-23T04:27:38;8.90;99.90
22781;DHT22;11557;50.884;4.322;2024-03-23T04:30:05;8.90;99.90
22781;DHT22;11557;50.884;4.322;2024-03-23T04:32:36;8.90;99.90
22781;DHT22;11557;50.884;4.322;2024-03-23T04:35:01;8.80;99.90
22781;DHT22;11557;50.884;4.322;2024-03-23T04:37:34;8.80;99.90
22781;DHT22;11557;50.884;4.322;2024-03-23T04:40:00;8.90;99.90
22781;DHT22;11557;50.884;4.322;2024-03-23T04:42:30;8.50;99.90
22781;DHT22;11557;50.884;4.322;2024-03-23T04:44:55;8.70;99.90
22781;DHT22;11557;50.884;4.322;2024-03-23T04:47:21;8.80;99.90
22781;DHT22;11557;50.884;4.322;2024-03-23T04:49:47;8.70;99.90
22781;DHT22;11557;50.884;4.322;2024-03-23T04:52:12;8.60;99.90
22781;DHT22;11557;50.884;4.322;2024-03-23T04:54:38;8.60;99.90
22781;DHT22;11557;50.884;4.322;2024-03-23T04:57:06;8.50;99.90
22781;DHT22;11557;50.884;4.322;2024-03-23T04:59:31;8.60;99.90
22781;DHT22;11557;50.884;4.322;2024-03-23T05:01:57;8.80;99.90
22781;DHT22;11557;50.884;4.322;2024-03-23T05:04:23;9.00;99.90
22781;DHT22;11557;50.884;4.322;2024-03-23T05:06:48;9.00;99.90
22781;DHT22;11557;50.884;4.322;2024-03-23T05:09:14;9.10;99.90
22781;DHT22;11557;50.884;4.322;2024-03-23T05:11:40;9.00;99.90
22781;DHT22;11557;50.884;4.322;2024-03-23T05:14:07;8.90;99.90
22781;DHT22;11557;50.884;4.322;2024-03-23T05:16:32;9.00;99.90
22781;DHT22;11557;50.884;4.322;2024-03-23T05:18:58;9.20;99.90
22781;DHT22;11557;50.884;4.322;2024-03-23T05:21:24;9.00;99.90
22781;DHT22;11557;50.884;4.322;2024-03-23T05:23:49;8.80;99.90
22781;DHT22;11557;50.884;4.322;2024-03-23T05:26:16;8.80;99.90
22781;DHT22;11557;50.884;4.322;2024-03-23T05:28:42;8.90;99.90
22781;DHT22;11557;50.884;4.322;2024-03-23T05:31:08;8.80;99.90
22781;DHT22;11557;50.884;4.322;2024-03-23T05:33:36;8.80;99.90
22781;DHT22;11557;50.884;4.322;2024-03-23T05:36:04;8.80;99.90
22781;DHT22;11557;50.884;4.322;2024-03-23T05:38:30;8.30;99.90
22781;DHT22;11557;50.884;4.322;2024-03-23T05:40:59;8.40;99.90
22781;DHT22;11557;50.884;4.322;2024-03-23T05:43:28;8.40;99.90
22781;DHT22;11557;50.884;4.322;2024-03-23T05:45:58;8.50;99.90
22781;DHT22;11557;50.884;4.322;2024-03-23T05:48:25;8.60;99.90
22781;DHT22;11557;50.884;4.322;2024-03-23T05:50:51;8.60;99.90
22781;DHT22;11557;50.884;4.322;2024-03-23T05:53:18;8.60;99.90
22781;DHT22;11557;50.884;4.322;2024-03-23T05:55:46;8.40;99.90
22781;DHT22;11557;50.884;4.322;2024-03-23T05:58:14;8.40;99.90
22781;DHT22;11557;50.884;4.322;2024-03-23T06:00:40;8.40;99.90
22781;DHT22;11557;50.884;4.322;2024-03-23T06:03:06;8.50;99.90
22781;DHT22;11557;50.884;4.322;2024-03-23T06:05:31;8.20;99.90
22781;DHT22;11557;50.884;4.322;2024-03-23T06:07:57;8.30;99.90
22781;DHT22;11557;50.884;4.322;2024-03-23T06:10:23;8.30;99.90
22781;DHT22;11557;50.884;4.322;2024-03-23T06:12:48;8.10;99.90
22781;DHT22;11557;50.884;4.322;2024-03-23T06:15:16;8.00;99.90
22781;DHT22;11557;50.884;4.322;2024-03-23T06:17:42;8.10;99.90
22781;DHT22;11557;50.884;4.322;2024-03-23T06:20:09;8.10;99.90
22781;DHT22;11557;50.884;4.322;2024-03-23T06:22:35;8.10;99.90
22781;DHT22;11557;50.884;4.322;2024-03-23T06:25:01;8.20;99.90
22781;DHT22;11557;50.884;4.322;2024-03-23T06:27:27;8.30;99.90
22781;DHT22;11557;50.884;4.322;2024-03-23T06:29:52;8.30;99.90
22781;DHT22;11557;50.884;4.322;2024-03-23T06:32:18;8.40;99.90
22781;DHT22;11557;50.884;4.322;2024-03-23T06:34:44;8.40;99.90
22781;DHT22;11557;50.884;4.322;2024-03-23T06:37:11;8.10;99.90
22781;DHT22;11557;50.884;4.322;2024-03-23T06:39:37;8.10;99.90
22781;DHT22;11557;50.884;4.322;2024-03-23T06:42:03;7.90;99.90
22781;DHT22;11557;50.884;4.322;2024-03-23T06:44:29;7.70;99.90
22781;DHT22;11557;50.884;4.322;2024-03-23T06:46:55;7.90;99.90
22781;DHT22;11557;50.884;4.322;2024-03-23T06:49:22;7.90;99.90
22781;DHT22;11557;50.884;4.322;2024-03-23T06:51:48;7.90;99.90
22781;DHT22;11557;50.884;4.322;2024-03-23T06:54:14;8.00;99.90
22781;DHT22;11557;50.884;4.322;2024-03-23T06:56:40;8.30;99.90
22781;DHT22;11557;50.884;4.322;2024-03-23T06:59:06;8.20;99.90
22781;DHT22;11557;50.884;4.322;2024-03-23T07:01:32;8.10;99.90
22781;DHT22;11557;50.884;4.322;2024-03-23T07:03:57;7.90;99.90
22781;DHT22;11557;50.884;4.322;2024-03-23T07:06:23;7.50;99.90
22781;DHT22;11557;50.884;4.322;2024-03-23T07:08:49;7.40;99.90
22781;DHT22;11557;50.884;4.322;2024-03-23T07:11:24;7.40;99.90
22781;DHT22;11557;50.884;4.322;2024-03-23T07:13:50;7.50;99.90
22781;DHT22;11557;50.884;4.322;2024-03-23T07:16:16;7.50;99.90
22781;DHT22;11557;50.884;4.322;2024-03-23T07:18:42;7.50;99.90
22781;DHT22;11557;50.884;4.322;2024-03-23T07:21:08;7.60;99.90
22781;DHT22;11557;50.884;4.322;2024-03-23T07:23:34;7.40;99.90
22781;DHT22;11557;50.884;4.322;2024-03-23T07:26:04;7.30;99.90
22781;DHT22;11557;50.884;4.322;2024-03-23T07:28:31;7.20;99.90
22781;DHT22;11557;50.884;4.322;2024-03-23T07:31:07;7.40;99.90
22781;DHT22;11557;50.884;4.322;2024-03-23T07:33:42;7.70;99.90
22781;DHT22;11557;50.884;4.322;2024-03-23T07:36:08;8.00;99.90
22781;DHT22;11557;50.884;4.322;2024-03-23T07:38:34;8.10;99.90
22781;DHT22;11557;50.884;4.322;2024-03-23T07:41:17;8.30;99.90
22781;DHT22;11557;50.884;4.322;2024-03-23T07:43:43;8.20;99.90
22781;DHT22;11557;50.884;4.322;2024-03-23T07:46:09;8.50;99.90
22781;DHT22;11557;50.884;4.322;2024-03-23T07:48:35;8.50;99.90
22781;DHT22;11557;50.884;4.322;2024-03-23T07:51:02;8.30;99.90
22781;DHT22;11557;50.884;4.322;2024-03-23T07:53:28;8.30;99.90
22781;DHT22;11557;50.884;4.322;2024-03-23T07:55:55;8.10;99.90
22781;DHT22;11557;50.884;4.322;2024-03-23T07:58:22;8.40;99.90
22781;DHT22;11557;50.884;4.322;2024-03-23T08:00:47;8.60;99.90
22781;DHT22;11557;50.884;4.322;2024-03-23T08:03:13;8.70;99.90
22781;DHT22;11557;50.884;4.322;2024-03-23T08:05:39;8.70;99.90
22781;DHT22;11557;50.884;4.322;2024-03-23T08:08:04;8.70;99.90
22781;DHT22;11557;50.884;4.322;2024-03-23T08:10:30;9.00;99.90
22781;DHT22;11557;50.884;4.322;2024-03-23T08:12:56;9.00;99.90
22781;DHT22;11557;50.884;4.322;2024-03-23T08:15:21;9.00;99.90
22781;DHT22;11557;50.884;4.322;2024-03-23T08:17:47;8.80;99.90
22781;DHT22;11557;50.884;4.322;2024-03-23T08:20:12;8.90;99.90
22781;DHT22;11557;50.884;4.322;2024-03-23T08:22:38;9.00;99.90
22781;DHT22;11557;50.884;4.322;2024-03-23T08:25:04;9.10;99.90
22781;DHT22;11557;50.884;4.322;2024-03-23T08:27:30;9.00;99.90
22781;DHT22;11557;50.884;4.322;2024-03-23T08:29:56;8.50;99.90
22781;DHT22;11557;50.884;4.322;2024-03-23T08:32:21;8.40;99.90
22781;DHT22;11557;50.884;4.322;2024-03-23T08:34:47;8.50;99.90
22781;DHT22;11557;50.884;4.322;2024-03-23T08:37:12;8.20;99.90
22781;DHT22;11557;50.884;4.322;2024-03-23T08:39:38;8.30;99.90
22781;DHT22;11557;50.884;4.322;2024-03-23T08:42:04;8.20;99.90
22781;DHT22;11557;50.884;4.322;2024-03-23T08:44:29;8.20;99.90
22781;DHT22;11557;50.884;4.322;2024-03-23T08:46:58;8.20;99.90
22781;DHT22;11557;50.884;4.322;2024-03-23T08:49:24;8.40;99.90
22781;DHT22;11557;50.884;4.322;2024-03-23T08:51:50;8.20;99.90
22781;DHT22;11557;50.884;4.322;2024-03-23T08:54:15;8.20;99.90
22781;DHT22;11557;50.884;4.322;2024-03-23T08:56:41;8.50;99.90
22781;DHT22;11557;50.884;4.322;2024-03-23T08:59:06;8.70;99.90
22781;DHT22;11557;50.884;4.322;2024-03-23T09:01:32;8.70;99.90
22781;DHT22;11557;50.884;4.322;2024-03-23T09:03:57;8.60;99.90
22781;DHT22;11557;50.884;4.322;2024-03-23T09:06:23;8.80;99.90
22781;DHT22;11557;50.884;4.322;2024-03-23T09:08:49;8.70;99.90
22781;DHT22;11557;50.884;4.322;2024-03-23T09:11:14;8.70;99.90
22781;DHT22;11557;50.884;4.322;2024-03-23T09:13:40;8.80;99.90
22781;DHT22;11557;50.884;4.322;2024-03-23T09:16:07;8.80;99.90
22781;DHT22;11557;50.884;4.322;2024-03-23T09:18:36;8.60;99.90
22781;DHT22;11557;50.884;4.322;2024-03-23T09:21:10;8.60;99.90
22781;DHT22;11557;50.884;4.322;2024-03-23T09:23:36;8.60;99.90
22781;DHT22;11557;50.884;4.322;2024-03-23T09:26:05;8.80;99.90
22781;DHT22;11557;50.884;4.322;2024-03-23T09:28:33;8.70;99.90
22781;DHT22;11557;50.884;4.322;2024-03-23T09:33:30;8.90;99.90
22781;DHT22;11557;50.884;4.322;2024-03-23T09:35:56;8.80;99.90
22781;DHT22;11557;50.884;4.322;2024-03-23T09:38:24;9.20;99.90
22781;DHT22;11557;50.884;4.322;2024-03-23T09:40:52;10.30;99.90
22781;DHT22;11557;50.884;4.322;2024-03-23T09:43:19;11.10;99.90
22781;DHT22;11557;50.884;4.322;2024-03-23T09:45:45;11.00;99.90
22781;DHT22;11557;50.884;4.322;2024-03-23T09:48:11;11.10;99.90
22781;DHT22;11557;50.884;4.322;2024-03-23T09:50:42;10.70;99.90
22781;DHT22;11557;50.884;4.322;2024-03-23T09:53:10;10.90;99.90
22781;DHT22;11557;50.884;4.322;2024-03-23T09:55:37;11.60;99.90
22781;DHT22;11557;50.884;4.322;2024-03-23T09:58:04;11.60;99.90
22781;DHT22;11557;50.884;4.322;2024-03-23T10:00:32;11.70;99.90
22781;DHT22;11557;50.884;4.322;2024-03-23T10:02:59;11.90;99.90
22781;DHT22;11557;50.884;4.322;2024-03-23T10:05:28;11.40;99.90
22781;DHT22;11557;50.884;4.322;2024-03-23T10:07:54;10.90;99.90
22781;DHT22;11557;50.884;4.322;2024-03-23T10:10:20;10.40;99.90
22781;DHT22;11557;50.884;4.322;2024-03-23T10:12:49;10.30;99.90
22781;DHT22;11557;50.884;4.322;2024-03-23T10:17:45;10.70;99.90
22781;DHT22;11557;50.884;4.322;2024-03-23T10:20:10;10.70;99.90
22781;DHT22;11557;50.884;4.322;2024-03-23T10:22:37;10.50;99.90
22781;DHT22;11557;50.884;4.322;2024-03-23T10:25:10;10.20;99.90
22781;DHT22;11557;50.884;4.322;2024-03-23T10:27:36;9.60;99.90
22781;DHT22;11557;50.884;4.322;2024-03-23T10:30:11;9.30;99.90
22781;DHT22;11557;50.884;4.322;2024-03-23T10:32:38;9.20;99.90
22781;DHT22;11557;50.884;4.322;2024-03-23T10:35:16;9.50;99.90
22781;DHT22;11557;50.884;4.322;2024-03-23T10:37:44;9.80;99.90
22781;DHT22;11557;50.884;4.322;2024-03-23T10:40:12;9.60;99.90
22781;DHT22;11557;50.884;4.322;2024-03-23T10:42:38;9.60;99.90
22781;DHT22;11557;50.884;4.322;2024-03-23T10:45:05;9.70;99.90
22781;DHT22;11557;50.884;4.322;2024-03-23T10:47:32;9.70;99.90
22781;DHT22;11557;50.884;4.322;2024-03-23T10:49:58;9.80;99.90
22781;DHT22;11557;50.884;4.322;2024-03-23T10:52:23;9.70;99.90
22781;DHT22;11557;50.884;4.322;2024-03-23T10:54:51;9.50;99.90
22781;DHT22;11557;50.884;4.322;2024-03-23T11:00:02;9.40;99.90
22781;DHT22;11557;50.884;4.322;2024-03-23T11:02:28;9.20;99.90
22781;DHT22;11557;50.884;4.322;2024-03-23T11:04:55;9.20;99.90
22781;DHT22;11557;50.884;4.322;2024-03-23T11:09:53;9.20;99.90
22781;DHT22;11557;50.884;4.322;2024-03-23T11:14:58;9.80;99.90
22781;DHT22;11557;50.884;4.322;2024-03-23T11:17:25;9.90;99.90
22781;DHT22;11557;50.884;4.322;2024-03-23T11:20:01;9.90;99.90
22781;DHT22;11557;50.884;4.322;2024-03-23T11:22:42;9.80;99.90
22781;DHT22;11557;50.884;4.322;2024-03-23T11:25:16;9.70;99.90
22781;DHT22;11557;50.884;4.322;2024-03-23T11:27:43;9.60;99.90
22781;DHT22;11557;50.884;4.322;2024-03-23T11:32:39;9.90;99.90
22781;DHT22;11557;50.884;4.322;2024-03-23T11:35:05;10.30;99.90
22781;DHT22;11557;50.884;4.322;2024-03-23T11:37:32;10.70;99.90
22781;DHT22;11557;50.884;4.322;2024-03-23T11:39:57;11.00;99.90
22781;DHT22;11557;50.884;4.322;2024-03-23T11:42:23;11.10;99.90
22781;DHT22;11557;50.884;4.322;2024-03-23T11:44:48;11.40;99.90
22781;DHT22;11557;50.884;4.322;2024-03-23T11:47:14;11.50;99.90
22781;DHT22;11557;50.884;4.322;2024-03-23T11:49:40;11.30;99.90
22781;DHT22;11557;50.884;4.322;2024-03-23T11:52:08;11.40;99.90
22781;DHT22;11557;50.884;4.322;2024-03-23T11:54:34;11.40;99.90
22781;DHT22;11557;50.884;4.322;2024-03-23T11:57:01;11.30;99.90
22781;DHT22;11557;50.884;4.322;2024-03-23T11:59:37;11.30;99.90
22781;DHT22;11557;50.884;4.322;2024-03-23T12:02:10;11.30;99.90
22781;DHT22;11557;50.884;4.322;2024-03-23T12:04:37;11.30;99.90
22781;DHT22;11557;50.884;4.322;2024-03-23T12:07:21;11.50;99.90
22781;DHT22;11557;50.884;4.322;2024-03-23T12:10:07;11.40;99.90
22781;DHT22;11557;50.884;4.322;2024-03-23T12:12:33;11.40;99.90
22781;DHT22;11557;50.884;4.322;2024-03-23T12:15:05;11.40;99.90
22781;DHT22;11557;50.884;4.322;2024-03-23T12:17:32;10.80;99.90
22781;DHT22;11557;50.884;4.322;2024-03-23T12:19:57;10.40;99.90
22781;DHT22;11557;50.884;4.322;2024-03-23T12:22:24;9.70;99.90
22781;DHT22;11557;50.884;4.322;2024-03-23T12:24:50;9.40;99.90
22781;DHT22;11557;50.884;4.322;2024-03-23T12:27:16;9.30;99.90
22781;DHT22;11557;50.884;4.322;2024-03-23T12:29:42;9.40;99.90
22781;DHT22;11557;50.884;4.322;2024-03-23T12:32:09;9.50;99.90
22781;DHT22;11557;50.884;4.322;2024-03-23T12:34:34;9.70;99.90
22781;DHT22;11557;50.884;4.322;2024-03-23T12:37:00;9.90;99.90
22781;DHT22;11557;50.884;4.322;2024-03-23T12:39:27;10.30;99.90
22781;DHT22;11557;50.884;4.322;2024-03-23T12:41:52;10.50;99.90
22781;DHT22;11557;50.884;4.322;2024-03-23T12:44:18;10.90;99.90
22781;DHT22;11557;50.884;4.322;2024-03-23T12:46:44;11.20;99.90
22781;DHT22;11557;50.884;4.322;2024-03-23T12:49:11;11.00;99.90
22781;DHT22;11557;50.884;4.322;2024-03-23T12:51:37;11.00;99.90
22781;DHT22;11557;50.884;4.322;2024-03-23T12:54:03;10.70;99.90
22781;DHT22;11557;50.884;4.322;2024-03-23T12:56:29;10.80;99.90
22781;DHT22;11557;50.884;4.322;2024-03-23T12:58:55;10.50;99.90
22781;DHT22;11557;50.884;4.322;2024-03-23T13:01:23;10.40;99.90
22781;DHT22;11557;50.884;4.322;2024-03-23T13:03:49;10.30;99.90
22781;DHT22;11557;50.884;4.322;2024-03-23T13:06:19;10.40;99.90
22781;DHT22;11557;50.884;4.322;2024-03-23T13:08:45;10.50;99.90
22781;DHT22;11557;50.884;4.322;2024-03-23T13:11:11;10.70;99.90
22781;DHT22;11557;50.884;4.322;2024-03-23T13:13:37;10.80;99.90
22781;DHT22;11557;50.884;4.322;2024-03-23T13:16:04;11.10;99.90
22781;DHT22;11557;50.884;4.322;2024-03-23T13:18:31;11.10;99.90
22781;DHT22;11557;50.884;4.322;2024-03-23T13:20:57;10.70;99.90
22781;DHT22;11557;50.884;4.322;2024-03-23T13:23:23;10.20;99.90
22781;DHT22;11557;50.884;4.322;2024-03-23T13:25:52;9.80;99.90
22781;DHT22;11557;50.884;4.322;2024-03-23T13:28:19;9.50;99.90
22781;DHT22;11557;50.884;4.322;2024-03-23T13:30:55;9.50;99.90
22781;DHT22;11557;50.884;4.322;2024-03-23T13:33:22;9.40;99.90
22781;DHT22;11557;50.884;4.322;2024-03-23T13:35:54;9.50;99.90
22781;DHT22;11557;50.884;4.322;2024-03-23T13:38:23;9.60;99.90
22781;DHT22;11557;50.884;4.322;2024-03-23T13:40:59;9.70;99.90
22781;DHT22;11557;50.884;4.322;2024-03-23T13:43:26;9.80;99.90
22781;DHT22;11557;50.884;4.322;2024-03-23T13:45:57;9.70;99.90
22781;DHT22;11557;50.884;4.322;2024-03-23T13:48:27;9.80;99.90
22781;DHT22;11557;50.884;4.322;2024-03-23T13:51:03;10.00;99.90
22781;DHT22;11557;50.884;4.322;2024-03-23T13:53:29;10.10;99.90
22781;DHT22;11557;50.884;4.322;2024-03-23T13:55:55;10.10;99.90
22781;DHT22;11557;50.884;4.322;2024-03-23T13:58:21;10.10;99.90
22781;DHT22;11557;50.884;4.322;2024-03-23T14:00:47;10.00;99.90
22781;DHT22;11557;50.884;4.322;2024-03-23T14:03:14;9.90;99.90
22781;DHT22;11557;50.884;4.322;2024-03-23T14:05:40;9.90;99.90
22781;DHT22;11557;50.884;4.322;2024-03-23T14:08:07;9.70;99.90
22781;DHT22;11557;50.884;4.322;2024-03-23T14:10:33;9.50;99.90
22781;DHT22;11557;50.884;4.322;2024-03-23T14:12:59;9.50;99.90
22781;DHT22;11557;50.884;4.322;2024-03-23T14:15:27;9.40;99.90
22781;DHT22;11557;50.884;4.322;2024-03-23T14:17:53;9.60;99.90
22781;DHT22;11557;50.884;4.322;2024-03-23T14:20:20;10.10;99.90
22781;DHT22;11557;50.884;4.322;2024-03-23T14:22:47;10.70;99.90
22781;DHT22;11557;50.884;4.322;2024-03-23T14:25:12;11.10;99.90
22781;DHT22;11557;50.884;4.322;2024-03-23T14:27:38;10.80;99.90
22781;DHT22;11557;50.884;4.322;2024-03-23T14:30:04;11.10;99.90
22781;DHT22;11557;50.884;4.322;2024-03-23T14:32:30;11.20;99.90
22781;DHT22;11557;50.884;4.322;2024-03-23T14:35:06;11.20;99.90
22781;DHT22;11557;50.884;4.322;2024-03-23T14:37:39;11.10;99.90
22781;DHT22;11557;50.884;4.322;2024-03-23T14:40:05;10.90;99.90
22781;DHT22;11557;50.884;4.322;2024-03-23T14:42:32;10.60;99.90
22781;DHT22;11557;50.884;4.322;2024-03-23T14:44:58;10.50;99.90
22781;DHT22;11557;50.884;4.322;2024-03-23T14:47:23;10.50;99.90
22781;DHT22;11557;50.884;4.322;2024-03-23T14:49:49;10.40;99.90
22781;DHT22;11557;50.884;4.322;2024-03-23T14:52:16;10.40;99.90
22781;DHT22;11557;50.884;4.322;2024-03-23T14:54:42;10.40;99.90
22781;DHT22;11557;50.884;4.322;2024-03-23T14:57:08;10.40;99.90
22781;DHT22;11557;50.884;4.322;2024-03-23T14:59:35;10.20;99.90
22781;DHT22;11557;50.884;4.322;2024-03-23T15:02:00;10.00;99.90
22781;DHT22;11557;50.884;4.322;2024-03-23T15:04:26;9.90;99.90
22781;DHT22;11557;50.884;4.322;2024-03-23T15:06:52;10.00;99.90
22781;DHT22;11557;50.884;4.322;2024-03-23T15:09:18;10.60;99.90
22781;DHT22;11557;50.884;4.322;2024-03-23T15:11:43;11.00;99.90
22781;DHT22;11557;50.884;4.322;2024-03-23T15:14:09;11.30;99.90
22781;DHT22;11557;50.884;4.322;2024-03-23T15:16:36;11.50;99.90
22781;DHT22;11557;50.884;4.322;2024-03-23T15:19:02;11.30;99.90
22781;DHT22;11557;50.884;4.322;2024-03-23T15:21:28;11.60;99.90
22781;DHT22;11557;50.884;4.322;2024-03-23T15:23:53;11.60;99.90
22781;DHT22;11557;50.884;4.322;2024-03-23T15:26:19;11.20;99.90
22781;DHT22;11557;50.884;4.322;2024-03-23T15:28:49;11.10;99.90
22781;DHT22;11557;50.884;4.322;2024-03-23T15:31:24;10.90;99.90
22781;DHT22;11557;50.884;4.322;2024-03-23T15:33:50;10.80;99.90
22781;DHT22;11557;50.884;4.322;2024-03-23T15:36:16;10.70;99.90
22781;DHT22;11557;50.884;4.322;2024-03-23T15:38:43;10.60;99.90
22781;DHT22;11557;50.884;4.322;2024-03-23T15:41:09;10.70;99.90
22781;DHT22;11557;50.884;4.322;2024-03-23T15:43:35;10.50;99.90
22781;DHT22;11557;50.884;4.322;2024-03-23T15:46:02;10.50;99.90
22781;DHT22;11557;50.884;4.322;2024-03-23T15:48:29;10.60;99.90
22781;DHT22;11557;50.884;4.322;2024-03-23T15:51:13;10.50;99.90
22781;DHT22;11557;50.884;4.322;2024-03-23T15:53:39;10.50;99.90
22781;DHT22;11557;50.884;4.322;2024-03-23T15:56:05;10.40;99.90
22781;DHT22;11557;50.884;4.322;2024-03-23T15:58:32;10.60;99.90
22781;DHT22;11557;50.884;4.322;2024-03-23T16:01:06;10.70;99.90
22781;DHT22;11557;50.884;4.322;2024-03-23T16:03:34;10.90;99.90
22781;DHT22;11557;50.884;4.322;2024-03-23T16:06:04;11.10;99.90
22781;DHT22;11557;50.884;4.322;2024-03-23T16:08:31;11.20;99.90
22781;DHT22;11557;50.884;4.322;2024-03-23T16:11:15;11.00;99.90
22781;DHT22;11557;50.884;4.322;2024-03-23T16:13:41;10.80;99.90
22781;DHT22;11557;50.884;4.322;2024-03-23T16:16:08;10.70;99.90
22781;DHT22;11557;50.884;4.322;2024-03-23T16:18:37;10.50;99.90
22781;DHT22;11557;50.884;4.322;2024-03-23T16:21:06;10.50;99.90
22781;DHT22;11557;50.884;4.322;2024-03-23T16:23:35;10.40;99.90
22781;DHT22;11557;50.884;4.322;2024-03-23T16:26:06;10.40;99.90
22781;DHT22;11557;50.884;4.322;2024-03-23T16:28:34;10.40;99.90
22781;DHT22;11557;50.884;4.322;2024-03-23T16:31:02;10.50;99.90
22781;DHT22;11557;50.884;4.322;2024-03-23T16:33:29;10.40;99.90
22781;DHT22;11557;50.884;4.322;2024-03-23T16:36:05;10.50;99.90
22781;DHT22;11557;50.884;4.322;2024-03-23T16:38:33;10.50;99.90
22781;DHT22;11557;50.884;4.322;2024-03-23T16:41:04;10.60;99.90
22781;DHT22;11557;50.884;4.322;2024-03-23T16:43:31;10.50;99.90
22781;DHT22;11557;50.884;4.322;2024-03-23T16:45:59;10.50;99.90
22781;DHT22;11557;50.884;4.322;2024-03-23T16:48:27;10.40;99.90